createdAt,value
2016-05-09T00:00:46.731Z,23.28
2016-05-09T00:01:46.656Z,23.43
2016-05-09T00:02:46.879Z,23.34
2016-05-09T00:03:46.896Z,23.39
2016-05-09T00:04:46.946Z,23.34
2016-05-09T00:05:47.042Z,23.32
2016-05-09T00:06:47.060Z,23.31
2016-05-09T00:07:47.142Z,23.34
2016-05-09T00:08:47.191Z,23.44
2016-05-09T00:09:47.240Z,23.46
2016-05-09T00:10:47.321Z,23.37
2016-05-09T00:11:47.323Z,23.34
2016-05-09T00:12:47.389Z,23.32
2016-05-09T00:13:47.470Z,23.34
2016-05-09T00:14:47.504Z,23.37
2016-05-09T00:15:47.538Z,23.36
2016-05-09T00:16:47.634Z,23.32
2016-05-09T00:17:47.668Z,23.39
2016-05-09T00:18:47.561Z,23.31
2016-05-09T00:19:47.642Z,23.32
2016-05-09T00:20:47.692Z,23.36
2016-05-09T00:21:47.726Z,23.36
2016-05-09T00:22:47.947Z,23.31
2016-05-09T00:23:47.856Z,23.32
2016-05-09T00:24:48.155Z,23.32
2016-05-09T00:25:47.971Z,23.31
2016-05-09T00:26:47.988Z,23.36
2016-05-09T00:27:48.227Z,23.31
2016-05-09T00:28:48.463Z,23.32
2016-05-09T00:29:48.310Z,23.34
2016-05-09T00:30:48.375Z,23.36
2016-05-09T00:31:48.284Z,23.31
2016-05-09T00:32:48.318Z,23.25
2016-05-09T00:33:48.524Z,23.27
2016-05-09T00:34:48.604Z,23.34
2016-05-09T00:35:48.654Z,23.34
2016-05-09T00:36:48.735Z,23.32
2016-05-09T00:37:48.737Z,23.34
2016-05-09T00:38:48.803Z,23.31
2016-05-09T00:39:48.884Z,23.25
2016-05-09T00:40:48.902Z,23.28
2016-05-09T00:41:48.951Z,23.34
2016-05-09T00:42:48.876Z,23.31
2016-05-09T00:43:49.473Z,23.4
2016-05-09T00:44:49.132Z,23.34
2016-05-09T00:45:49.211Z,23.27
2016-05-09T00:46:49.247Z,23.21
2016-05-09T00:47:49.327Z,23.28
2016-05-09T00:48:49.189Z,23.21
2016-05-09T00:49:49.254Z,23.2
2016-05-09T00:50:49.492Z,23.25
2016-05-09T00:51:49.494Z,23.24
2016-05-09T00:52:49.559Z,23.27
2016-05-09T00:53:49.624Z,23.2
2016-05-09T00:54:49.674Z,23.25
2016-05-09T00:55:49.552Z,23.36
2016-05-09T00:56:49.804Z,23.24
2016-05-09T00:57:49.838Z,23.32
2016-05-09T00:58:50.279Z,23.2
2016-05-09T00:59:49.969Z,23.2
2016-05-09T01:00:50.002Z,23.25
2016-05-09T01:01:50.068Z,23.23
2016-05-09T01:02:50.102Z,23.28
2016-05-09T01:03:50.151Z,23.37
2016-05-09T01:04:50.232Z,23.28
2016-05-09T01:05:50.266Z,23.27
2016-05-09T01:06:50.315Z,23.27
2016-05-09T01:07:50.412Z,23.25
2016-05-09T01:08:50.445Z,23.21
2016-05-09T01:09:50.480Z,23.24
2016-05-09T01:10:50.562Z,23.31
2016-05-09T01:11:50.610Z,23.24
2016-05-09T01:12:50.644Z,23.25
2016-05-09T01:13:50.584Z,23.18
2016-05-09T01:14:50.758Z,23.23
2016-05-09T01:15:50.668Z,23.18
2016-05-09T01:16:50.890Z,23.23
2016-05-09T01:17:50.908Z,23.24
2016-05-09T01:18:50.989Z,23.23
2016-05-09T01:19:51.038Z,23.24
2016-05-09T01:20:51.072Z,23.23
2016-05-09T01:21:50.965Z,23.2
2016-05-09T01:22:51.203Z,23.34
2016-05-09T01:23:51.252Z,23.24
2016-05-09T01:24:51.286Z,23.23
2016-05-09T01:25:51.382Z,23.21
2016-05-09T01:26:51.400Z,23.24
2016-05-09T01:27:51.450Z,23.24
2016-05-09T01:28:52.203Z,23.23
2016-05-09T01:29:51.580Z,23.2
2016-05-09T01:30:51.458Z,23.23
2016-05-09T01:31:51.695Z,23.2
2016-05-09T01:32:51.760Z,23.27
2016-05-09T01:33:51.779Z,23.23
2016-05-09T01:34:51.860Z,23.21
2016-05-09T01:35:51.924Z,23.27
2016-05-09T01:36:51.943Z,23.13
2016-05-09T01:37:52.008Z,23.17
2016-05-09T01:38:51.902Z,23.24
2016-05-09T01:39:52.124Z,23.18
2016-05-09T01:40:52.188Z,23.23
2016-05-09T01:41:52.207Z,23.27
2016-05-09T01:42:52.272Z,23.23
2016-05-09T01:43:52.227Z,23.18
2016-05-09T01:44:52.371Z,23.2
2016-05-09T01:45:52.420Z,23.21
2016-05-09T01:46:52.501Z,23.25
2016-05-09T01:47:52.379Z,23.21
2016-05-09T01:48:52.584Z,23.18
2016-05-09T01:49:52.681Z,23.21
2016-05-09T01:50:52.714Z,23.2
2016-05-09T01:51:52.781Z,23.21
2016-05-09T01:52:52.814Z,23.2
2016-05-09T01:53:52.848Z,23.18
2016-05-09T01:54:52.944Z,23.18
2016-05-09T01:55:52.978Z,23.21
2016-05-09T01:56:53.013Z,23.17
2016-05-09T01:57:53.109Z,23.18
2016-05-09T01:58:53.080Z,23.17
2016-05-09T01:59:53.177Z,23.18
2016-05-09T02:00:53.273Z,23.18
2016-05-09T02:01:53.166Z,23.17
2016-05-09T02:02:53.357Z,23.2
2016-05-09T02:03:53.266Z,23.18
2016-05-09T02:04:53.457Z,23.18
2016-05-09T02:05:53.537Z,23.18
2016-05-09T02:06:53.242Z,23.18
2016-05-09T02:07:53.620Z,23.15
2016-05-09T02:08:53.702Z,23.1
2016-05-09T02:09:53.735Z,23.15
2016-05-09T02:10:53.629Z,23.15
2016-05-09T02:11:53.865Z,23.09
2016-05-09T02:12:53.759Z,23.09
2016-05-09T02:13:54.058Z,23.18
2016-05-09T02:14:54.030Z,23.09
2016-05-09T02:15:54.079Z,23.12
2016-05-09T02:16:54.114Z,23.23
2016-05-09T02:17:54.037Z,23.1
2016-05-09T02:18:54.212Z,23.15
2016-05-09T02:19:54.292Z,23.2
2016-05-09T02:20:54.342Z,23.18
2016-05-09T02:21:54.361Z,23.17
2016-05-09T02:22:54.442Z,23.18
2016-05-09T02:23:54.513Z,23.17
2016-05-09T02:24:54.376Z,23.1
2016-05-09T02:25:54.596Z,23.17
2016-05-09T02:26:54.679Z,23.1
2016-05-09T02:27:54.697Z,23.15
2016-05-09T02:28:54.762Z,23.1
2016-05-09T02:29:54.826Z,23.1
2016-05-09T02:30:54.876Z,23.1
2016-05-09T02:31:54.942Z,23.09
2016-05-09T02:32:54.976Z,23.05
2016-05-09T02:33:55.041Z,23.2
2016-05-09T02:34:55.106Z,23.09
2016-05-09T02:35:54.968Z,23.15
2016-05-09T02:36:55.189Z,23.08
2016-05-09T02:37:55.286Z,23.12
2016-05-09T02:38:55.132Z,23.09
2016-05-09T02:39:55.339Z,23.09
2016-05-09T02:40:55.434Z,23.06
2016-05-09T02:41:55.312Z,23.1
2016-05-09T02:42:55.393Z,23.15
2016-05-09T02:43:55.817Z,23.06
2016-05-09T02:44:55.617Z,23
2016-05-09T02:45:55.698Z,23.1
2016-05-09T02:46:55.732Z,23.08
2016-05-09T02:47:55.781Z,23.1
2016-05-09T02:48:55.863Z,23.1
2016-05-09T02:49:55.897Z,23.09
2016-05-09T02:50:55.930Z,23.05
2016-05-09T02:51:56.042Z,23.08
2016-05-09T02:52:56.076Z,23.12
2016-05-09T02:53:56.110Z,23.05
2016-05-09T02:54:56.190Z,23.03
2016-05-09T02:55:56.225Z,23.1
2016-05-09T02:56:56.321Z,23.06
2016-05-09T02:57:56.355Z,23.1
2016-05-09T02:58:56.232Z,22.99
2016-05-09T02:59:56.455Z,23.1
2016-05-09T03:00:56.363Z,23.09
2016-05-09T03:01:56.538Z,23.09
2016-05-09T03:02:56.618Z,23.06
2016-05-09T03:03:56.668Z,23.06
2016-05-09T03:04:56.701Z,23.06
2016-05-09T03:05:56.595Z,23.08
2016-05-09T03:06:56.832Z,23.05
2016-05-09T03:07:56.867Z,23.15
2016-05-09T03:08:56.759Z,23.06
2016-05-09T03:09:56.841Z,23.08
2016-05-09T03:10:57.031Z,23
2016-05-09T03:11:57.064Z,23.1
2016-05-09T03:12:57.161Z,23.06
2016-05-09T03:13:57.711Z,23.02
2016-05-09T03:14:57.089Z,23.02
2016-05-09T03:15:57.169Z,23.05
2016-05-09T03:16:57.375Z,23.05
2016-05-09T03:17:57.409Z,23.06
2016-05-09T03:18:57.333Z,23.02
2016-05-09T03:19:57.539Z,23.05
2016-05-09T03:20:57.574Z,23.06
2016-05-09T03:21:57.483Z,23
2016-05-09T03:22:57.688Z,22.98
2016-05-09T03:23:57.753Z,23.02
2016-05-09T03:24:57.802Z,22.98
2016-05-09T03:25:57.821Z,23.06
2016-05-09T03:26:57.902Z,23.02
2016-05-09T03:27:57.811Z,22.96
2016-05-09T03:28:57.846Z,23
2016-05-09T03:29:58.051Z,23.02
2016-05-09T03:30:58.132Z,22.94
2016-05-09T03:31:58.009Z,23.02
2016-05-09T03:32:58.059Z,23
2016-05-09T03:33:58.295Z,23.06
2016-05-09T03:34:58.330Z,22.99
2016-05-09T03:35:58.395Z,22.99
2016-05-09T03:36:58.413Z,22.87
2016-05-09T03:37:58.509Z,22.9
2016-05-09T03:38:58.404Z,22.99
2016-05-09T03:39:58.593Z,22.99
2016-05-09T03:40:58.643Z,23.02
2016-05-09T03:41:58.739Z,22.99
2016-05-09T03:42:58.773Z,22.93
2016-05-09T03:43:58.666Z,22.96
2016-05-09T03:44:58.889Z,22.91
2016-05-09T03:45:58.937Z,23.02
2016-05-09T03:46:59.003Z,23
2016-05-09T03:47:59.021Z,23.03
2016-05-09T03:48:59.086Z,23.05
2016-05-09T03:49:59.167Z,23.05
2016-05-09T03:51:01.794Z,23.06
2016-05-09T03:51:59.235Z,23.06
2016-05-09T03:52:59.316Z,23.08
2016-05-09T03:53:59.365Z,23.09
2016-05-09T03:54:59.399Z,23.06
2016-05-09T03:55:59.480Z,23.18
2016-05-09T03:56:59.530Z,23.13
2016-05-09T03:57:59.563Z,23.17
2016-05-09T03:58:59.660Z,23.17
2016-05-09T03:59:59.678Z,23.21
2016-05-09T04:00:59.588Z,23.15
2016-05-09T04:01:59.824Z,23.15
2016-05-09T04:02:59.687Z,23.17
2016-05-09T04:03:59.907Z,23.18
2016-05-09T04:04:59.973Z,23.2
2016-05-09T04:05:59.834Z,23.18
2016-05-09T04:06:59.901Z,23.2
2016-05-09T04:08:00.121Z,23.25
2016-05-09T04:09:00.156Z,23.21
2016-05-09T04:10:00.205Z,23.2
2016-05-09T04:11:00.286Z,23.23
2016-05-09T04:12:00.335Z,23.18
2016-05-09T04:13:00.401Z,23.17
2016-05-09T04:14:00.498Z,23.18
2016-05-09T04:15:00.515Z,23.21
2016-05-09T04:16:00.564Z,23.27
2016-05-09T04:17:00.458Z,23.18
2016-05-09T04:18:00.664Z,23.23
2016-05-09T04:19:00.730Z,23.27
2016-05-09T04:20:00.592Z,23.37
2016-05-09T04:21:00.813Z,23.31
2016-05-09T04:22:00.877Z,23.27
2016-05-09T04:23:00.927Z,23.32
2016-05-09T04:24:00.961Z,23.31
2016-05-09T04:25:01.042Z,23.32
2016-05-09T04:26:01.092Z,23.28
2016-05-09T04:27:01.157Z,23.31
2016-05-09T04:28:01.019Z,23.27
2016-05-09T04:29:01.241Z,23.23
2016-05-09T04:30:01.321Z,23.27
2016-05-09T04:31:01.355Z,23.24
2016-05-09T04:32:01.452Z,23.27
2016-05-09T04:33:01.485Z,23.28
2016-05-09T04:34:01.520Z,23.32
2016-05-09T04:35:01.413Z,23.28
2016-05-09T04:36:01.650Z,23.37
2016-05-09T04:37:01.699Z,23.28
2016-05-09T04:38:01.749Z,23.28
2016-05-09T04:39:01.799Z,23.31
2016-05-09T04:40:01.832Z,23.37
2016-05-09T04:41:01.929Z,23.32
2016-05-09T04:42:01.978Z,23.24
2016-05-09T04:43:02.012Z,23.39
2016-05-09T04:44:02.093Z,23.25
2016-05-09T04:45:02.143Z,23.32
2016-05-09T04:46:02.162Z,23.31
2016-05-09T04:47:02.226Z,23.32
2016-05-09T04:48:02.291Z,23.34
2016-05-09T04:49:02.325Z,23.32
2016-05-09T04:50:02.392Z,23.24
2016-05-09T04:51:02.471Z,23.31
2016-05-09T04:52:02.475Z,23.34
2016-05-09T04:53:02.399Z,23.34
2016-05-09T04:54:02.620Z,23.36
2016-05-09T04:55:02.497Z,23.36
2016-05-09T04:56:02.705Z,23.32
2016-05-09T04:57:02.628Z,23.31
2016-05-09T04:58:02.835Z,23.36
2016-05-09T04:59:02.727Z,23.36
2016-05-09T05:00:02.949Z,23.15
2016-05-09T05:01:02.842Z,23.1
2016-05-09T05:02:03.033Z,23.08
2016-05-09T05:03:03.113Z,22.96
2016-05-09T05:04:03.147Z,22.93
2016-05-09T05:05:03.212Z,22.91
2016-05-09T05:06:03.121Z,22.78
2016-05-09T05:07:03.312Z,22.8
2016-05-09T05:08:03.377Z,22.73
2016-05-09T05:09:03.301Z,22.68
2016-05-09T05:10:03.460Z,22.62
2016-05-09T05:11:03.370Z,22.55
2016-05-09T05:12:03.590Z,22.59
2016-05-09T05:13:03.625Z,22.54
2016-05-09T05:14:04.315Z,22.45
2016-05-09T05:15:03.755Z,22.5
2016-05-09T05:16:03.789Z,22.51
2016-05-09T05:17:03.869Z,22.55
2016-05-09T05:18:03.889Z,22.54
2016-05-09T05:19:03.953Z,22.53
2016-05-09T05:20:03.878Z,22.45
2016-05-09T05:21:04.052Z,22.39
2016-05-09T05:22:04.102Z,22.36
2016-05-09T05:23:04.182Z,22.48
2016-05-09T05:24:04.217Z,22.39
2016-05-09T05:25:04.267Z,22.41
2016-05-09T05:26:04.363Z,22.35
2016-05-09T05:27:04.396Z,22.38
2016-05-09T05:28:04.430Z,22.33
2016-05-09T05:29:04.652Z,22.33
2016-05-09T05:30:04.561Z,22.38
2016-05-09T05:31:04.627Z,22.36
2016-05-09T05:32:04.644Z,22.38
2016-05-09T05:33:04.709Z,22.23
2016-05-09T05:34:04.790Z,22.3
2016-05-09T05:35:04.809Z,22.28
2016-05-09T05:36:04.702Z,22.22
2016-05-09T05:37:04.799Z,22.15
2016-05-09T05:38:04.973Z,22.17
2016-05-09T05:39:04.866Z,22.11
2016-05-09T05:40:05.103Z,22.11
2016-05-09T05:41:04.996Z,21.96
2016-05-09T05:42:05.031Z,22.02
2016-05-09T05:43:05.268Z,21.93
2016-05-09T05:44:05.317Z,21.93
2016-05-09T05:45:05.367Z,21.95
2016-05-09T05:46:05.432Z,21.92
2016-05-09T05:47:05.295Z,21.96
2016-05-09T05:48:05.531Z,21.92
2016-05-09T05:49:05.581Z,21.95
2016-05-09T05:50:05.442Z,21.89
2016-05-09T05:51:05.664Z,21.91
2016-05-09T05:52:05.744Z,21.88
2016-05-09T05:53:05.763Z,21.8
2016-05-09T05:54:05.657Z,21.79
2016-05-09T05:55:05.894Z,21.8
2016-05-09T05:56:05.803Z,21.83
2016-05-09T05:57:05.993Z,21.76
2016-05-09T05:58:05.730Z,21.75
2016-05-09T05:59:06.123Z,21.73
2016-05-09T06:00:06.016Z,21.72
2016-05-09T06:01:06.078Z,21.79
2016-05-09T06:02:06.344Z,21.83
2016-05-09T06:03:06.468Z,21.79
2016-05-09T06:04:06.530Z,21.66
2016-05-09T06:05:06.624Z,21.72
2016-05-09T06:06:06.720Z,21.66
2016-05-09T06:07:06.614Z,21.69
2016-05-09T06:08:06.866Z,21.6
2016-05-09T06:09:06.900Z,21.57
2016-05-09T06:10:06.997Z,21.62
2016-05-09T06:11:07.052Z,21.6
2016-05-09T06:12:07.076Z,21.55
2016-05-09T06:13:07.147Z,21.54
2016-05-09T06:14:07.443Z,21.46
2016-05-09T06:15:07.279Z,21.48
2016-05-09T06:16:07.159Z,21.54
2016-05-09T06:17:07.397Z,21.57
2016-05-09T06:18:07.449Z,21.61
2016-05-09T06:19:07.329Z,21.61
2016-05-09T06:20:07.411Z,21.55
2016-05-09T06:21:07.586Z,21.58
2016-05-09T06:22:07.527Z,21.54
2016-05-09T06:23:07.718Z,21.6
2016-05-09T06:24:07.752Z,21.66
2016-05-09T06:25:07.694Z,21.6
2016-05-09T06:26:07.884Z,21.66
2016-05-09T06:27:07.918Z,21.58
2016-05-09T06:28:08.000Z,21.55
2016-05-09T06:29:07.923Z,21.61
2016-05-09T06:30:08.067Z,21.69
2016-05-09T06:31:08.133Z,21.6
2016-05-09T06:32:08.197Z,21.58
2016-05-09T06:33:07.949Z,21.72
2016-05-09T06:34:08.140Z,21.8
2016-05-09T06:35:08.377Z,21.69
2016-05-09T06:36:08.442Z,21.6
2016-05-09T06:37:08.430Z,21.62
2016-05-09T06:38:08.510Z,21.51
2016-05-09T06:39:08.560Z,21.55
2016-05-09T06:40:08.625Z,21.58
2016-05-09T06:41:08.674Z,21.6
2016-05-09T06:42:08.724Z,21.58
2016-05-09T06:43:08.758Z,21.55
2016-05-09T06:44:08.729Z,21.57
2016-05-09T06:45:08.921Z,21.57
2016-05-09T06:46:08.923Z,21.51
2016-05-09T06:47:09.004Z,21.55
2016-05-09T06:48:09.021Z,21.55
2016-05-09T06:49:08.962Z,21.51
2016-05-09T06:50:08.996Z,21.55
2016-05-09T06:51:09.014Z,21.61
2016-05-09T06:52:09.095Z,21.57
2016-05-09T06:53:09.316Z,21.57
2016-05-09T06:54:09.334Z,21.58
2016-05-09T06:55:09.259Z,21.67
2016-05-09T06:56:09.309Z,21.66
2016-05-09T06:57:09.499Z,21.73
2016-05-09T06:58:09.548Z,21.69
2016-05-09T06:59:10.239Z,21.75
2016-05-09T07:00:09.679Z,21.73
2016-05-09T07:01:09.728Z,21.66
2016-05-09T07:02:09.762Z,21.67
2016-05-09T07:03:09.811Z,21.79
2016-05-09T07:04:09.736Z,21.83
2016-05-09T07:05:09.911Z,21.79
2016-05-09T07:06:09.960Z,21.79
2016-05-09T07:07:10.058Z,21.88
2016-05-09T07:08:10.091Z,21.88
2016-05-09T07:09:10.125Z,21.91
2016-05-09T07:10:10.049Z,21.91
2016-05-09T07:11:10.099Z,21.89
2016-05-09T07:12:10.321Z,21.89
2016-05-09T07:13:10.339Z,21.95
2016-05-09T07:14:10.249Z,21.91
2016-05-09T07:15:10.501Z,21.88
2016-05-09T07:16:10.504Z,22.02
2016-05-09T07:17:10.552Z,21.92
2016-05-09T07:18:10.634Z,21.99
2016-05-09T07:19:10.668Z,21.99
2016-05-09T07:20:10.732Z,21.91
2016-05-09T07:21:10.798Z,21.99
2016-05-09T07:22:10.676Z,21.95
2016-05-09T07:23:10.865Z,22.02
2016-05-09T07:24:10.946Z,22.06
2016-05-09T07:25:10.981Z,22
2016-05-09T07:26:10.890Z,22.1
2016-05-09T07:27:11.079Z,22.1
2016-05-09T07:28:11.129Z,22.08
2016-05-09T07:29:11.804Z,22.04
2016-05-09T07:30:11.260Z,22.04
2016-05-09T07:31:11.294Z,22.1
2016-05-09T07:32:11.389Z,22.17
2016-05-09T07:33:11.440Z,22.22
2016-05-09T07:34:11.473Z,22.13
2016-05-09T07:35:11.383Z,22.15
2016-05-09T07:36:11.448Z,22.15
2016-05-09T07:37:11.466Z,22.22
2016-05-09T07:38:11.688Z,22.22
2016-05-09T07:39:11.722Z,22.26
2016-05-09T07:40:11.818Z,22.3
2016-05-09T07:41:11.852Z,22.26
2016-05-09T07:42:11.870Z,22.26
2016-05-09T07:43:11.622Z,22.25
2016-05-09T07:44:12.485Z,22.33
2016-05-09T07:45:12.035Z,22.36
2016-05-09T07:46:12.084Z,22.26
2016-05-09T07:47:12.180Z,22.38
2016-05-09T07:48:12.199Z,22.33
2016-05-09T07:49:12.248Z,22.35
2016-05-09T07:50:12.330Z,22.39
2016-05-09T07:51:12.399Z,22.39
2016-05-09T07:52:12.434Z,22.36
2016-05-09T07:53:12.468Z,22.43
2016-05-09T07:54:12.517Z,22.44
2016-05-09T07:55:12.591Z,22.38
2016-05-09T07:56:12.625Z,22.36
2016-05-09T07:57:12.691Z,22.44
2016-05-09T07:58:12.615Z,22.39
2016-05-09T07:59:12.978Z,22.39
2016-05-09T08:00:12.855Z,22.48
2016-05-09T08:01:12.935Z,22.59
2016-05-09T08:02:12.969Z,22.51
2016-05-09T08:03:13.019Z,22.51
2016-05-09T08:04:13.053Z,22.53
2016-05-09T08:05:18.946Z,22.48
2016-05-09T08:06:22.871Z,22.51
2016-05-09T08:07:19.592Z,22.48
2016-05-09T08:08:23.126Z,22.53
2016-05-09T08:09:29.910Z,22.54
2016-05-09T08:10:18.882Z,22.54
2016-05-09T08:11:16.119Z,22.57
2016-05-09T08:12:19.293Z,22.48
2016-05-09T08:13:13.562Z,22.63
2016-05-09T08:14:13.673Z,22.6
2016-05-09T08:15:13.520Z,22.62
2016-05-09T08:16:13.570Z,22.62
2016-05-09T08:17:14.307Z,22.6
2016-05-09T08:18:13.810Z,22.62
2016-05-09T08:19:13.765Z,22.6
2016-05-09T08:20:13.908Z,22.62
2016-05-09T08:21:13.975Z,22.7
2016-05-09T08:22:14.039Z,22.73
2016-05-09T08:23:14.104Z,22.75
2016-05-09T08:24:14.139Z,22.69
2016-05-09T08:25:14.220Z,22.76
2016-05-09T08:26:14.269Z,22.65
2016-05-09T08:27:14.131Z,22.73
2016-05-09T08:28:14.211Z,22.7
2016-05-09T08:29:14.402Z,22.81
2016-05-09T08:30:14.311Z,22.8
2016-05-09T08:31:14.501Z,22.85
2016-05-09T08:32:14.394Z,22.85
2016-05-09T08:33:14.647Z,22.83
2016-05-09T08:34:14.680Z,22.81
2016-05-09T08:35:14.558Z,22.81
2016-05-09T08:36:14.811Z,22.85
2016-05-09T08:37:14.861Z,22.87
2016-05-09T08:38:14.723Z,22.81
2016-05-09T08:39:14.959Z,22.91
2016-05-09T08:40:15.025Z,22.81
2016-05-09T08:41:15.044Z,22.88
2016-05-09T08:42:15.109Z,22.88
2016-05-09T08:43:15.143Z,22.85
2016-05-09T08:44:15.270Z,22.9
2016-05-09T08:45:15.289Z,22.99
2016-05-09T08:46:15.307Z,22.94
2016-05-09T08:47:15.403Z,22.85
2016-05-09T08:48:15.453Z,22.93
2016-05-09T08:49:15.471Z,22.93
2016-05-09T08:50:15.380Z,22.88
2016-05-09T08:51:15.461Z,22.93
2016-05-09T08:52:15.464Z,22.87
2016-05-09T08:53:15.686Z,22.88
2016-05-09T08:54:15.609Z,22.96
2016-05-09T08:55:15.800Z,22.98
2016-05-09T08:56:15.725Z,23.02
2016-05-09T08:57:15.899Z,23.02
2016-05-09T08:58:15.964Z,23.03
2016-05-09T08:59:16.373Z,22.98
2016-05-09T09:00:16.063Z,22.98
2016-05-09T09:01:16.113Z,22.94
2016-05-09T09:02:16.053Z,23.02
2016-05-09T09:03:16.258Z,23.03
2016-05-09T09:04:16.293Z,23.02
2016-05-09T09:05:16.358Z,23.08
2016-05-09T09:06:16.266Z,23.02
2016-05-09T09:07:16.316Z,22.99
2016-05-09T09:08:16.490Z,23.03
2016-05-09T09:09:16.400Z,22.99
2016-05-09T09:10:16.637Z,23.06
2016-05-09T09:11:16.654Z,22.99
2016-05-09T09:12:16.564Z,23.02
2016-05-09T09:13:16.802Z,23.05
2016-05-09T09:14:17.257Z,23.05
2016-05-09T09:15:16.870Z,23.05
2016-05-09T09:16:16.810Z,23.09
2016-05-09T09:17:16.687Z,23.06
2016-05-09T09:18:17.049Z,23.06
2016-05-09T09:19:17.115Z,23.09
2016-05-09T09:20:17.179Z,23.1
2016-05-09T09:21:17.229Z,23.06
2016-05-09T09:22:17.122Z,23.13
2016-05-09T09:23:17.312Z,23.12
2016-05-09T09:24:17.394Z,23.1
2016-05-09T09:25:17.443Z,23.17
2016-05-09T09:26:17.461Z,23.15
2016-05-09T09:27:17.386Z,23.09
2016-05-09T09:28:17.608Z,23.15
2016-05-09T09:29:17.516Z,23.09
2016-05-09T09:30:17.675Z,23.13
2016-05-09T09:31:17.771Z,23.15
2016-05-09T09:32:17.806Z,23.09
2016-05-09T09:33:17.886Z,23.13
2016-05-09T09:34:17.889Z,23.15
2016-05-09T09:35:17.830Z,23.18
2016-05-09T09:36:18.051Z,23.17
2016-05-09T09:37:18.069Z,23.17
2016-05-09T09:38:18.135Z,23.18
2016-05-09T09:39:18.199Z,23.17
2016-05-09T09:40:18.233Z,23.15
2016-05-09T09:41:18.283Z,23.24
2016-05-09T09:42:18.379Z,23.21
2016-05-09T09:43:18.257Z,23.27
2016-05-09T09:44:18.447Z,23.21
2016-05-09T09:45:18.529Z,23.21
2016-05-09T09:46:18.578Z,23.2
2016-05-09T09:47:18.642Z,23.21
2016-05-09T09:48:18.662Z,23.24
2016-05-09T09:49:18.726Z,23.27
2016-05-09T09:50:18.792Z,23.24
2016-05-09T09:51:18.841Z,23.27
2016-05-09T09:52:18.719Z,23.24
2016-05-09T09:53:18.956Z,23.23
2016-05-09T09:54:19.006Z,23.36
2016-05-09T09:55:19.040Z,23.25
2016-05-09T09:56:18.980Z,23.28
2016-05-09T09:57:19.186Z,23.23
2016-05-09T09:58:19.219Z,23.28
2016-05-09T09:59:19.456Z,23.28
2016-05-09T10:00:19.349Z,23.24
2016-05-09T10:01:19.368Z,23.25
2016-05-09T10:02:19.418Z,23.27
2016-05-09T10:03:19.499Z,23.23
2016-05-09T10:04:19.533Z,23.23
2016-05-09T10:05:19.583Z,23.24
2016-05-09T10:06:19.663Z,23.32
2016-05-09T10:07:19.727Z,23.32
2016-05-09T10:08:19.746Z,23.25
2016-05-09T10:09:19.827Z,23.23
2016-05-09T10:10:19.876Z,23.27
2016-05-09T10:11:19.770Z,23.28
2016-05-09T10:12:19.960Z,23.34
2016-05-09T10:13:20.026Z,23.2
2016-05-09T10:14:20.107Z,23.28
2016-05-09T10:15:20.124Z,23.36
2016-05-09T10:16:20.174Z,23.36
2016-05-09T10:17:20.255Z,23.34
2016-05-09T10:18:20.304Z,23.27
2016-05-09T10:19:20.354Z,23.34
2016-05-09T10:20:20.435Z,23.31
2016-05-09T10:21:20.484Z,23.32
2016-05-09T10:22:20.518Z,23.31
2016-05-09T10:23:20.428Z,23.31
2016-05-09T10:24:20.617Z,23.4
2016-05-09T10:25:20.698Z,23.34
2016-05-09T10:26:20.732Z,23.31
2016-05-09T10:27:20.625Z,23.37
2016-05-09T10:28:20.878Z,23.41
2016-05-09T10:29:21.178Z,23.4
2016-05-09T10:30:20.947Z,23.34
2016-05-09T10:31:21.027Z,23.34
2016-05-09T10:32:20.920Z,23.39
2016-05-09T10:33:21.110Z,23.4
2016-05-09T10:34:21.036Z,23.31
2016-05-09T10:35:21.256Z,23.36
2016-05-09T10:36:21.259Z,23.41
2016-05-09T10:37:21.199Z,23.46
2016-05-09T10:38:21.389Z,23.4
2016-05-09T10:39:21.438Z,23.31
2016-05-09T10:40:21.504Z,23.39
2016-05-09T10:41:21.554Z,23.31
2016-05-09T10:42:21.604Z,23.39
2016-05-09T10:43:21.669Z,23.41
2016-05-09T10:44:22.046Z,23.43
2016-05-09T10:45:21.752Z,23.37
2016-05-09T10:46:21.848Z,23.47
2016-05-09T10:47:22.070Z,23.47
2016-05-09T10:48:21.932Z,23.41
2016-05-09T10:49:21.841Z,23.46
2016-05-09T10:50:21.890Z,23.48
2016-05-09T10:51:22.081Z,23.39
2016-05-09T10:52:22.161Z,23.41
2016-05-09T10:53:22.211Z,23.47
2016-05-09T10:54:22.261Z,23.51
2016-05-09T10:55:22.326Z,23.47
2016-05-09T10:56:22.392Z,23.46
2016-05-09T10:57:22.425Z,23.44
2016-05-09T10:58:22.490Z,23.41
2016-05-09T10:59:23.445Z,23.46
2016-05-09T11:00:22.558Z,23.44
2016-05-09T11:01:22.639Z,23.41
2016-05-09T11:02:22.688Z,23.4
2016-05-09T11:03:22.753Z,23.4
2016-05-09T11:04:22.663Z,23.4
2016-05-09T11:05:22.836Z,23.46
2016-05-09T11:06:22.902Z,23.47
2016-05-09T11:07:22.983Z,23.4
2016-05-09T11:08:23.017Z,23.47
2016-05-09T11:09:23.066Z,23.47
2016-05-09T11:10:23.163Z,23.51
2016-05-09T11:11:23.024Z,23.48
2016-05-09T11:12:23.230Z,23.5
2016-05-09T11:13:23.313Z,23.48
2016-05-09T11:14:23.377Z,23.54
2016-05-09T11:15:23.239Z,23.48
2016-05-09T11:16:23.445Z,23.46
2016-05-09T11:17:23.509Z,23.47
2016-05-09T11:18:23.606Z,23.51
2016-05-09T11:19:23.624Z,23.47
2016-05-09T11:20:23.659Z,23.5
2016-05-09T11:21:23.754Z,23.48
2016-05-09T11:22:23.804Z,23.5
2016-05-09T11:23:23.823Z,23.47
2016-05-09T11:24:23.732Z,23.5
2016-05-09T11:25:23.813Z,23.55
2016-05-09T11:26:23.987Z,23.61
2016-05-09T11:27:24.053Z,23.58
2016-05-09T11:28:24.087Z,23.56
2016-05-09T11:29:24.183Z,23.51
2016-05-09T11:30:24.216Z,23.5
2016-05-09T11:31:24.267Z,23.56
2016-05-09T11:32:24.363Z,23.54
2016-05-09T11:33:24.397Z,23.47
2016-05-09T11:34:24.274Z,23.5
2016-05-09T11:35:24.511Z,23.5
2016-05-09T11:36:24.561Z,23.46
2016-05-09T11:37:24.580Z,23.54
2016-05-09T11:38:24.661Z,23.55
2016-05-09T11:39:24.741Z,23.47
2016-05-09T11:40:24.744Z,23.48
2016-05-09T11:41:24.794Z,23.54
2016-05-09T11:42:24.905Z,23.56
2016-05-09T11:43:24.939Z,23.51
2016-05-09T11:44:26.942Z,23.55
2016-05-09T11:45:25.054Z,23.59
2016-05-09T11:46:25.104Z,23.61
2016-05-09T11:47:25.121Z,23.55
2016-05-09T11:48:25.203Z,23.55
2016-05-09T11:49:25.112Z,23.55
2016-05-09T11:50:25.129Z,23.54
2016-05-09T11:51:25.351Z,23.5
2016-05-09T11:52:25.276Z,23.51
2016-05-09T11:53:25.451Z,23.56
2016-05-09T11:54:25.548Z,23.61
2016-05-09T11:55:25.565Z,23.48
2016-05-09T11:56:25.489Z,23.62
2016-05-09T11:57:25.695Z,23.56
2016-05-09T11:58:25.730Z,23.61
2016-05-09T11:59:26.029Z,23.51
2016-05-09T12:00:25.875Z,23.55
2016-05-09T12:01:25.909Z,23.58
2016-05-09T12:02:25.959Z,23.54
2016-05-09T12:03:26.040Z,23.5
2016-05-09T12:04:26.059Z,23.61
2016-05-09T12:05:26.108Z,23.59
2016-05-09T12:06:26.172Z,23.54
2016-05-09T12:07:26.238Z,23.59
2016-05-09T12:08:26.164Z,23.55
2016-05-09T12:09:26.322Z,23.55
2016-05-09T12:10:26.402Z,23.65
2016-05-09T12:11:26.468Z,23.55
2016-05-09T12:12:26.329Z,23.5
2016-05-09T12:13:26.552Z,23.51
2016-05-09T12:14:26.632Z,23.58
2016-05-09T12:15:26.650Z,23.61
2016-05-09T12:16:26.543Z,23.58
2016-05-09T12:17:26.796Z,23.65
2016-05-09T12:18:26.846Z,23.58
2016-05-09T12:19:26.740Z,23.61
2016-05-09T12:20:26.617Z,23.56
2016-05-09T12:21:26.979Z,23.62
2016-05-09T12:22:27.060Z,23.56
2016-05-09T12:23:27.110Z,23.56
2016-05-09T12:24:27.143Z,23.55
2016-05-09T12:25:27.223Z,23.61
2016-05-09T12:26:27.273Z,23.65
2016-05-09T12:27:27.307Z,23.68
2016-05-09T12:28:27.389Z,23.62
2016-05-09T12:29:27.142Z,23.56
2016-05-09T12:30:27.503Z,23.69
2016-05-09T12:31:27.537Z,23.69
2016-05-09T12:32:27.431Z,23.63
2016-05-09T12:33:27.543Z,23.61
2016-05-09T12:34:27.701Z,23.69
2016-05-09T12:35:27.751Z,23.58
2016-05-09T12:36:27.675Z,23.69
2016-05-09T12:37:27.569Z,23.58
2016-05-09T12:38:27.916Z,23.65
2016-05-09T12:39:27.980Z,23.63
2016-05-09T12:40:28.046Z,23.55
2016-05-09T12:41:28.064Z,23.51
2016-05-09T12:42:28.145Z,23.68
2016-05-09T12:43:28.210Z,23.61
2016-05-09T12:44:28.227Z,23.58
2016-05-09T12:45:28.325Z,23.58
2016-05-09T12:46:28.328Z,23.61
2016-05-09T12:47:28.408Z,23.61
2016-05-09T12:48:28.474Z,23.58
2016-05-09T12:49:28.507Z,23.62
2016-05-09T12:50:28.558Z,23.54
2016-05-09T12:51:28.638Z,23.59
2016-05-09T12:52:28.516Z,23.68
2016-05-09T12:53:28.721Z,23.56
2016-05-09T12:54:28.817Z,23.55
2016-05-09T12:55:28.852Z,23.62
2016-05-09T12:56:28.886Z,23.69